Time;durP1;ratioP1;P1;durP2;ratioP2;P2;SDS_P1;SDS_P2;PMS_P1;PMS_P2;Temp;Humidity;BMP_temperature;BMP_pressure;BME280_temperature;BME280_humidity;BME280_pressure;Samples;Min_cycle;Max_cycle;Signal;HPM_P1;HPM_P2
2021/12/30 00:01:10;;;;;;;21.33;6.50;;;;;;;11.64;82.64;99208.09;4972123;28;20042;-76
2021/12/30 00:03:36;;;;;;;27.13;6.18;;;;;;;11.65;82.41;99207.16;4988753;28;20041;-75
2021/12/30 00:06:03;;;;;;;20.63;6.57;;;;;;;11.65;82.58;99202.72;4970436;28;20115;-75
2021/12/30 00:08:28;;;;;;;15.57;4.88;;;;;;;11.64;82.95;99202.81;4989372;28;20030;-74
2021/12/30 00:10:54;;;;;;;28.10;6.80;;;;;;;11.63;82.58;99209.88;4973420;28;20061;-75
2021/12/30 00:13:21;;;;;;;18.13;5.85;;;;;;;11.61;83.16;99219.69;4989269;28;20046;-74
2021/12/30 00:15:47;;;;;;;22.35;6.72;;;;;;;11.65;82.63;99230.94;4988235;28;20565;-73
2021/12/30 00:18:12;;;;;;;20.38;5.28;;;;;;;11.65;83.16;99237.06;4988770;28;20038;-75
2021/12/30 00:20:38;;;;;;;23.88;6.40;;;;;;;11.66;82.79;99236.09;4988994;28;20661;-76
2021/12/30 00:23:06;;;;;;;19.42;6.07;;;;;;;11.67;82.70;99235.16;4989545;28;20031;-76
2021/12/30 00:25:38;;;;;;;22.10;5.43;;;;;;;11.71;83.19;99238.44;4988555;28;20129;-76
2021/12/30 00:28:05;;;;;;;16.27;6.38;;;;;;;11.70;82.80;99242.88;4988868;28;20041;-76
2021/12/30 00:30:31;;;;;;;22.13;6.22;;;;;;;11.72;82.31;99245.44;4987546;28;20526;-74
2021/12/30 00:32:56;;;;;;;16.65;5.60;;;;;;;11.72;82.67;99238.38;4988320;28;20042;-74
2021/12/30 00:35:22;;;;;;;22.00;5.72;;;;;;;11.73;82.79;99241.84;4971516;28;20031;-74
2021/12/30 00:37:47;;;;;;;17.90;5.65;;;;;;;11.73;83.07;99233.94;4988837;28;20035;-75
2021/12/30 00:40:13;;;;;;;22.63;6.32;;;;;;;11.74;82.83;99244.41;4988684;28;20446;-76
2021/12/30 00:42:40;;;;;;;21.60;5.93;;;;;;;11.75;83.29;99248.72;4988784;28;20062;-76
2021/12/30 00:45:06;;;;;;;17.70;5.85;;;;;;;11.76;83.60;99254.84;4987976;28;20066;-76
2021/12/30 00:47:32;;;;;;;16.50;6.00;;;;;;;11.79;83.24;99260.81;4987773;28;20060;-76
2021/12/30 00:49:57;;;;;;;21.95;6.45;;;;;;;11.82;83.91;99263.25;4988830;28;20046;-75
2021/12/30 00:52:23;;;;;;;20.98;7.03;;;;;;;11.86;83.78;99260.41;4989439;28;20033;-76
2021/12/30 00:54:49;;;;;;;17.52;5.55;;;;;;;11.87;84.42;99260.34;4987838;28;20030;-74
2021/12/30 00:57:14;;;;;;;15.38;5.10;;;;;;;11.91;84.68;99250.44;4971210;28;20487;-75
2021/12/30 00:59:39;;;;;;;18.15;6.57;;;;;;;11.96;84.87;99261.53;4988753;28;20126;-75
2021/12/30 01:02:05;;;;;;;11.23;4.78;;;;;;;12.01;85.15;99262.97;4988717;28;20089;-74
2021/12/30 01:04:30;;;;;;;15.90;5.40;;;;;;;11.99;84.82;99241.09;4988160;28;20113;-75
2021/12/30 01:06:56;;;;;;;11.20;4.88;;;;;;;12.03;85.11;99244.38;4988050;28;20041;-74
2021/12/30 01:09:21;;;;;;;16.30;5.72;;;;;;;12.07;84.67;99256.44;4988631;28;20050;-74
2021/12/30 01:11:46;;;;;;;14.27;5.22;;;;;;;12.08;84.93;99252.84;4988637;28;20121;-74
2021/12/30 01:14:19;;;;;;;14.55;4.85;;;;;;;12.07;85.63;99253.81;4985438;28;20093;-75
2021/12/30 01:16:48;;;;;;;19.52;6.03;;;;;;;12.11;86.64;99252.66;4988561;28;20031;-75
2021/12/30 01:21:47;;;;;;;16.73;5.32;;;;;;;12.11;87.69;99257.06;4988585;28;20042;-75
2021/12/30 01:24:13;;;;;;;17.42;6.10;;;;;;;12.10;87.62;99264.16;4988182;28;20035;-75
2021/12/30 01:26:38;;;;;;;16.33;6.03;;;;;;;12.12;88.26;99269.38;4987850;28;20053;-74
2021/12/30 01:29:04;;;;;;;12.25;4.97;;;;;;;12.12;87.88;99269.38;4987955;28;20034;-74
2021/12/30 01:31:29;;;;;;;15.73;5.15;;;;;;;12.11;88.41;99265.88;4968714;28;20039;-75
2021/12/30 01:33:55;;;;;;;16.40;6.05;;;;;;;12.11;88.44;99279.09;4969451;28;20035;-76
2021/12/30 01:36:21;;;;;;;22.60;7.03;;;;;;;12.12;89.59;99275.50;4968325;28;20384;-76
2021/12/30 01:38:48;;;;;;;20.70;7.90;;;;;;;12.14;90.33;99276.25;4968795;28;20050;-75
2021/12/30 01:41:14;;;;;;;16.95;7.82;;;;;;;12.15;89.98;99279.72;4943895;28;20054;-74
2021/12/30 01:43:40;;;;;;;19.52;8.48;;;;;;;12.14;90.31;99267.47;4955307;28;20074;-75
2021/12/30 01:46:09;;;;;;;21.27;10.77;;;;;;;12.14;90.75;99275.41;4954266;28;20522;-74
2021/12/30 01:48:35;;;;;;;21.67;8.68;;;;;;;12.15;90.75;99280.56;4954720;28;20035;-75
2021/12/30 01:51:01;;;;;;;18.23;8.23;;;;;;;12.17;90.72;99272.56;4972483;28;20399;-76
2021/12/30 01:53:27;;;;;;;22.25;7.18;;;;;;;12.17;91.00;99280.47;4971253;28;20061;-76
2021/12/30 01:55:52;;;;;;;17.35;7.57;;;;;;;12.14;90.87;99286.81;4972676;28;20030;-76
2021/12/30 01:58:19;;;;;;;14.52;5.43;;;;;;;12.14;91.56;99280.69;4961982;28;20030;-74
2021/12/30 02:00:47;;;;;;;16.85;6.88;;;;;;;12.09;90.72;99283.63;4949953;28;20071;-76
2021/12/30 02:03:14;;;;;;;10.75;4.95;;;;;;;12.06;91.24;99280.31;4966881;28;20041;-75
2021/12/30 02:05:40;;;;;;;8.85;4.97;;;;;;;12.03;91.69;99286.63;4990046;28;20046;-75
2021/12/30 02:08:10;;;;;;;15.60;5.13;;;;;;;11.98;91.24;99279.00;4974039;28;20034;-75
2021/12/30 02:10:36;;;;;;;8.90;4.13;;;;;;;11.95;91.81;99281.84;4974294;28;20113;-76
2021/12/30 02:13:01;;;;;;;10.90;4.82;;;;;;;11.93;91.95;99274.97;4958536;28;20121;-76
2021/12/30 02:15:27;;;;;;;9.98;5.28;;;;;;;11.94;91.98;99289.88;4991344;28;20058;-74
2021/12/30 02:17:54;;;;;;;8.20;4.20;;;;;;;11.92;92.40;99274.13;4973756;28;20494;-76
2021/12/30 02:20:52;;;;;;;8.32;3.92;;;;;;;11.97;92.75;99276.47;4981280;28;20046;-74
2021/12/30 02:23:23;;;;;;;12.38;4.22;;;;;;;11.94;92.67;99274.88;4990795;28;20049;-76
2021/12/30 02:25:49;;;;;;;11.52;3.97;;;;;;;11.97;92.85;99271.19;4990832;28;20051;-76
2021/12/30 02:28:17;;;;;;;6.45;3.25;;;;;;;11.97;92.81;99271.19;4990738;28;20038;-76
2021/12/30 02:30:44;;;;;;;9.43;3.88;;;;;;;11.97;92.29;99271.19;4990779;28;20125;-76
2021/12/30 02:33:10;;;;;;;9.55;3.80;;;;;;;11.99;92.83;99269.31;4991248;28;20046;-76
2021/12/30 02:35:36;;;;;;;8.05;3.83;;;;;;;12.00;93.27;99265.69;4990263;28;20069;-76
2021/12/30 02:38:02;;;;;;;7.10;3.33;;;;;;;11.97;93.14;99272.03;4990957;28;20077;-76
2021/12/30 02:40:32;;;;;;;6.05;3.70;;;;;;;11.95;93.45;99276.56;4991079;28;20566;-75
2021/12/30 02:42:58;;;;;;;5.38;2.80;;;;;;;11.95;93.11;99276.56;4990342;28;20046;-76
2021/12/30 02:45:23;;;;;;;6.65;3.35;;;;;;;11.97;93.28;99276.47;4990027;28;20037;-76
2021/12/30 02:47:49;;;;;;;4.78;2.55;;;;;;;11.97;93.71;99276.47;4990800;28;20487;-76
2021/12/30 02:50:14;;;;;;;4.70;2.47;;;;;;;11.98;93.32;99278.16;4990966;28;20039;-75
2021/12/30 02:52:40;;;;;;;6.07;2.45;;;;;;;11.99;92.88;99285.16;4990839;28;20030;-75
2021/12/30 02:55:05;;;;;;;4.80;2.55;;;;;;;12.00;93.42;99277.13;4998442;28;20042;-76
2021/12/30 02:57:31;;;;;;;5.13;2.47;;;;;;;12.03;93.55;99287.50;5007550;28;20073;-74
2021/12/30 02:59:56;;;;;;;3.85;2.03;;;;;;;12.04;93.32;99275.13;4986777;28;20387;-75
2021/12/30 03:02:21;;;;;;;5.82;2.47;;;;;;;12.06;93.76;99281.19;4990464;28;20453;-76
2021/12/30 03:04:47;;;;;;;3.08;1.83;;;;;;;12.06;93.18;99273.25;4990548;28;20034;-76
2021/12/30 03:07:16;;;;;;;3.65;1.70;;;;;;;12.08;93.53;99273.13;4991085;28;20042;-75
2021/12/30 03:09:41;;;;;;;3.60;1.83;;;;;;;12.08;94.39;99279.25;4990779;28;20773;-75
2021/12/30 03:12:07;;;;;;;3.28;2.00;;;;;;;12.07;94.68;99274.94;4990172;28;20042;-77
2021/12/30 03:14:32;;;;;;;3.33;1.70;;;;;;;12.09;94.59;99278.34;4990817;28;20483;-76
2021/12/30 03:16:57;;;;;;;2.97;1.77;;;;;;;12.09;94.33;99286.25;4990455;28;20058;-77
2021/12/30 03:19:23;;;;;;;2.65;1.77;;;;;;;12.11;94.69;99279.09;4997001;28;20671;-75
2021/12/30 03:21:48;;;;;;;2.45;1.58;;;;;;;12.14;94.56;99288.63;5005512;28;20095;-76
2021/12/30 03:24:14;;;;;;;2.90;1.90;;;;;;;12.17;94.96;99280.47;5004261;28;20058;-77
2021/12/30 03:26:39;;;;;;;3.35;1.70;;;;;;;12.21;94.96;99285.47;4991760;28;20034;-76
2021/12/30 03:29:05;;;;;;;2.45;1.52;;;;;;;12.23;94.90;99288.88;4990296;28;20038;-76
2021/12/30 03:31:31;;;;;;;6.22;2.03;;;;;;;12.25;94.58;99297.53;4990349;28;20038;-75
2021/12/30 03:33:57;;;;;;;3.25;1.70;;;;;;;12.23;94.93;99295.94;4989631;28;20038;-76
2021/12/30 03:36:22;;;;;;;2.67;1.60;;;;;;;12.27;95.03;99293.97;4989098;28;20544;-76
2021/12/30 03:38:53;;;;;;;2.80;1.65;;;;;;;12.27;94.78;99291.31;4989803;28;20481;-76
2021/12/30 03:41:21;;;;;;;1.65;1.52;;;;;;;12.28;95.17;99295.66;4990077;28;20681;-76
2021/12/30 03:43:47;;;;;;;1.92;1.20;;;;;;;12.31;96.12;99287.53;4989744;28;20032;-75
2021/12/30 03:46:12;;;;;;;1.48;1.33;;;;;;;12.34;95.79;99296.09;4988683;28;20052;-74
2021/12/30 03:48:43;;;;;;;1.55;1.30;;;;;;;12.36;95.75;99299.50;4989691;28;20030;-73
2021/12/30 03:51:13;;;;;;;2.15;1.40;;;;;;;12.40;95.72;99306.31;4972442;28;20034;-74
2021/12/30 03:53:42;;;;;;;3.80;1.75;;;;;;;12.45;95.69;99305.97;4989137;28;20030;-74
2021/12/30 03:56:10;;;;;;;4.75;1.90;;;;;;;12.48;95.49;99304.94;4988387;28;20125;-75
2021/12/30 03:58:36;;;;;;;3.40;2.30;;;;;;;12.53;95.58;99311.63;4989294;28;20053;-75
2021/12/30 04:01:02;;;;;;;3.60;2.08;;;;;;;12.56;95.09;99316.72;4989426;28;20089;-77
2021/12/30 04:03:28;;;;;;;2.95;1.70;;;;;;;12.59;95.42;99321.81;4989463;28;20034;-75
2021/12/30 04:05:53;;;;;;;3.85;1.77;;;;;;;12.64;95.54;99330.28;4988534;28;20057;-75
2021/12/30 04:08:18;;;;;;;3.10;1.95;;;;;;;12.68;95.50;99337.06;4989114;28;20084;-75
2021/12/30 04:10:44;;;;;;;2.20;1.70;;;;;;;12.69;94.98;99343.22;4978732;28;20117;-74
2021/12/30 04:13:09;;;;;;;3.08;2.25;;;;;;;12.73;95.78;99343.88;4988735;28;20065;-76
2021/12/30 04:15:35;;;;;;;2.33;1.73;;;;;;;12.74;95.51;99343.75;4988653;28;20038;-75
2021/12/30 04:18:00;;;;;;;2.38;1.50;;;;;;;12.75;95.86;99337.53;4989107;28;20046;-75
2021/12/30 04:20:25;;;;;;;3.53;1.95;;;;;;;12.76;94.94;99346.31;4989058;28;20033;-77
2021/12/30 04:22:51;;;;;;;4.32;1.98;;;;;;;12.76;96.03;99341.88;4988589;28;20082;-76
2021/12/30 04:25:16;;;;;;;4.13;1.80;;;;;;;12.77;95.67;99334.78;4988379;28;20050;-75
2021/12/30 04:27:42;;;;;;;5.68;1.90;;;;;;;12.78;95.80;99344.41;4988933;28;20037;-75
2021/12/30 04:30:09;;;;;;;2.00;1.50;;;;;;;12.77;96.41;99348.84;4989257;28;20631;-74
2021/12/30 04:32:35;;;;;;;1.83;1.55;;;;;;;12.80;96.36;99348.66;4999931;28;20038;-75
2021/12/30 04:35:00;;;;;;;1.77;1.55;;;;;;;12.81;96.31;99347.69;4984751;28;20116;-74
2021/12/30 04:37:26;;;;;;;2.13;1.80;;;;;;;12.81;96.26;99346.84;5000624;28;20038;-74
2021/12/30 04:39:51;;;;;;;2.22;1.60;;;;;;;12.82;96.54;99353.84;5000854;28;20030;-75
2021/12/30 04:42:17;;;;;;;3.45;1.55;;;;;;;12.83;96.15;99351.09;5001678;28;20102;-74
2021/12/30 04:44:43;;;;;;;2.28;1.50;;;;;;;12.83;96.52;99351.09;5000710;28;20050;-75
2021/12/30 04:47:09;;;;;;;1.45;1.33;;;;;;;12.83;96.36;99355.53;4959534;28;20043;-76
2021/12/30 04:49:34;;;;;;;7.43;1.48;;;;;;;12.84;96.70;99350.13;4994217;28;20085;-76
2021/12/30 04:52:00;;;;;;;2.40;1.40;;;;;;;12.84;96.64;99355.44;4992668;28;20054;-76
2021/12/30 04:54:25;;;;;;;3.50;1.40;;;;;;;12.83;96.42;99358.19;4993504;28;20038;-75
2021/12/30 04:56:51;;;;;;;1.52;1.20;;;;;;;12.84;96.17;99362.53;4977519;28;20042;-76
2021/12/30 04:59:16;;;;;;;2.45;1.42;;;;;;;12.87;96.49;99367.59;4991243;28;20045;-74
2021/12/30 05:01:41;;;;;;;1.60;1.35;;;;;;;12.87;95.94;99371.13;4991724;28;20120;-76
2021/12/30 05:04:07;;;;;;;1.25;1.15;;;;;;;12.90;96.34;99367.44;4988959;28;20069;-76
2021/12/30 05:06:34;;;;;;;2.30;1.70;;;;;;;12.91;96.81;99371.75;4988660;28;20791;-75
2021/12/30 05:08:59;;;;;;;1.90;1.50;;;;;;;12.93;97.57;99380.44;4985918;28;20056;-74
2021/12/30 05:11:25;;;;;;;2.03;1.48;;;;;;;12.94;96.74;99373.34;4988313;28;20034;-75
2021/12/30 05:13:50;;;;;;;2.50;1.80;;;;;;;12.94;96.20;99382.13;4988655;28;20066;-75
2021/12/30 05:16:17;;;;;;;3.28;1.73;;;;;;;12.95;97.15;99381.19;4990817;28;20557;-75
2021/12/30 05:18:43;;;;;;;3.65;1.20;;;;;;;12.97;96.92;99381.06;4992412;28;20031;-76
2021/12/30 05:21:10;;;;;;;2.67;1.50;;;;;;;12.97;96.87;99389.88;4975014;28;20035;-76
2021/12/30 05:23:37;;;;;;;1.50;1.40;;;;;;;13.00;97.17;99388.84;4992319;28;20113;-76
2021/12/30 05:26:02;;;;;;;1.83;1.55;;;;;;;13.02;97.20;99379.84;4992151;28;20062;-77
2021/12/30 05:28:28;;;;;;;1.48;1.38;;;;;;;13.07;96.36;99385.69;4992024;28;20059;-75
2021/12/30 05:30:53;;;;;;;2.17;1.65;;;;;;;13.10;96.30;99385.47;4992359;28;20111;-76
2021/12/30 05:33:19;;;;;;;1.50;1.40;;;;;;;13.12;96.09;99388.03;4992513;28;20044;-75
2021/12/30 05:35:44;;;;;;;3.05;2.05;;;;;;;13.13;96.34;99389.72;4991364;28;20026;-75
2021/12/30 05:38:10;;;;;;;2.05;1.63;;;;;;;13.15;96.08;99393.13;4991572;28;20397;-77
2021/12/30 05:40:36;;;;;;;2.03;1.73;;;;;;;13.15;96.11;99390.47;4992343;28;20042;-75
2021/12/30 05:43:02;;;;;;;3.40;2.00;;;;;;;13.17;95.63;99391.22;4992086;28;20042;-75
2021/12/30 05:45:28;;;;;;;2.05;1.60;;;;;;;13.20;95.32;99398.09;4974060;28;20042;-75
2021/12/30 05:47:54;;;;;;;2.42;1.88;;;;;;;13.22;95.16;99404.16;4991486;28;20053;-75
2021/12/30 05:50:22;;;;;;;3.13;2.30;;;;;;;13.22;95.13;99391.75;4991236;28;20442;-75
2021/12/30 05:52:47;;;;;;;2.40;2.00;;;;;;;13.26;95.61;99410.91;4991454;28;20379;-76
2021/12/30 05:55:14;;;;;;;3.05;2.38;;;;;;;13.23;95.10;99416.44;4991152;28;20061;-75
2021/12/30 05:57:40;;;;;;;3.55;2.47;;;;;;;13.23;95.16;99414.63;4991855;28;20034;-77
2021/12/30 06:00:08;;;;;;;3.33;2.50;;;;;;;13.26;94.05;99410.91;4991664;28;20043;-75
2021/12/30 06:02:33;;;;;;;2.50;2.30;;;;;;;13.26;93.97;99409.13;4986081;28;20034;-75
2021/12/30 06:04:59;;;;;;;2.45;2.15;;;;;;;13.32;93.33;99410.56;4987919;28;20077;-75
2021/12/30 06:07:24;;;;;;;2.72;2.15;;;;;;;13.36;92.67;99422.63;4991046;28;20042;-74
2021/12/30 06:09:50;;;;;;;2.67;2.22;;;;;;;13.37;92.14;99400.50;4991328;28;20093;-77
2021/12/30 06:12:15;;;;;;;2.47;2.10;;;;;;;13.38;92.22;99396.06;4974097;28;20039;-76
2021/12/30 06:14:41;;;;;;;6.47;3.25;;;;;;;13.39;92.00;99398.63;4991453;28;20042;-75
2021/12/30 06:17:06;;;;;;;5.38;3.78;;;;;;;13.40;92.35;99402.09;4974049;28;20060;-75
2021/12/30 06:19:31;;;;;;;3.45;2.90;;;;;;;13.36;92.80;99416.50;4991736;28;20038;-76
2021/12/30 06:21:57;;;;;;;4.32;2.70;;;;;;;13.35;93.14;99413.00;4991039;28;20030;-76
2021/12/30 06:24:22;;;;;;;3.13;2.83;;;;;;;13.33;93.22;99417.53;4990582;28;20117;-75
2021/12/30 06:26:47;;;;;;;5.68;2.97;;;;;;;13.31;93.36;99427.38;4989433;28;20042;-75
2021/12/30 06:29:14;;;;;;;2.47;1.98;;;;;;;13.31;93.20;99430.91;4974268;28;20518;-73
2021/12/30 06:31:40;;;;;;;2.00;1.73;;;;;;;13.33;92.52;99422.84;4991361;28;20065;-76
2021/12/30 06:34:05;;;;;;;2.30;2.10;;;;;;;13.32;92.54;99423.81;4991078;28;20101;-75
2021/12/30 06:36:31;;;;;;;1.92;1.70;;;;;;;13.34;92.65;99429.84;4989756;28;20042;-75
2021/12/30 06:38:56;;;;;;;2.53;1.95;;;;;;;13.34;91.87;99421.91;4990895;28;20065;-78
2021/12/30 06:41:21;;;;;;;2.35;1.80;;;;;;;13.37;91.60;99429.63;4991625;28;20060;-76
2021/12/30 06:43:47;;;;;;;2.47;1.85;;;;;;;13.35;91.72;99426.22;4996912;28;20402;-76
2021/12/30 06:46:12;;;;;;;6.65;1.63;;;;;;;13.39;91.13;99437.47;4995468;28;20494;-75
2021/12/30 06:48:44;;;;;;;1.92;1.67;;;;;;;13.39;91.17;99422.44;4993859;28;20165;-75
2021/12/30 06:51:09;;;;;;;3.05;1.73;;;;;;;13.43;90.41;99438.97;4990998;28;20494;-75
2021/12/30 06:53:35;;;;;;;1.92;1.73;;;;;;;13.43;90.95;99426.56;4990269;28;20057;-75
2021/12/30 06:56:00;;;;;;;2.10;1.50;;;;;;;13.46;90.42;99429.03;4990406;28;20486;-74
2021/12/30 06:58:25;;;;;;;2.08;1.60;;;;;;;13.45;90.27;99432.63;4990750;28;20030;-76
2021/12/30 07:00:51;;;;;;;1.73;1.42;;;;;;;13.45;90.36;99434.41;4990948;28;20125;-76
2021/12/30 07:03:17;;;;;;;2.35;1.52;;;;;;;13.46;89.48;99428.16;4973517;28;20034;-75
2021/12/30 07:05:42;;;;;;;2.33;1.48;;;;;;;13.48;89.78;99416.50;4991008;28;20038;-75
2021/12/30 07:08:08;;;;;;;1.52;1.42;;;;;;;13.48;90.10;99415.66;4993149;28;20038;-76
2021/12/30 07:10:33;;;;;;;1.38;1.27;;;;;;;13.47;89.29;99414.81;4994573;28;20065;-74
2021/12/30 07:12:58;;;;;;;1.75;1.42;;;;;;;13.50;89.27;99411.13;4998234;28;20035;-75
2021/12/30 07:15:24;;;;;;;3.10;2.05;;;;;;;13.55;88.80;99403.72;4995030;28;20030;-76
2021/12/30 07:17:49;;;;;;;2.10;1.60;;;;;;;13.56;88.55;99418.66;4974684;28;20133;-75
2021/12/30 07:20:15;;;;;;;2.55;1.00;;;;;;;13.59;88.38;99410.50;4997831;28;20045;-74
2021/12/30 07:22:41;;;;;;;5.10;1.40;;;;;;;13.59;87.42;99425.56;4996992;28;20117;-76
2021/12/30 07:25:08;;;;;;;1.38;1.27;;;;;;;13.56;87.52;99436.34;4990091;28;20034;-75
2021/12/30 07:27:34;;;;;;;1.63;1.38;;;;;;;13.57;87.69;99420.34;4990666;28;20046;-77
2021/12/30 07:29:59;;;;;;;1.10;1.00;;;;;;;13.58;87.24;99421.19;4990241;28;20466;-75
2021/12/30 07:32:25;;;;;;;1.60;1.10;;;;;;;13.61;86.16;99429.81;4989977;28;20052;-75
2021/12/30 07:34:51;;;;;;;1.30;1.20;;;;;;;13.64;86.04;99445.47;4990253;28;20402;-75
2021/12/30 07:37:17;;;;;;;1.75;1.20;;;;;;;13.72;85.58;99460.84;4971900;28;20026;-75
2021/12/30 07:39:44;;;;;;;1.55;1.10;;;;;;;13.76;85.38;99457.06;4989516;28;20030;-76
2021/12/30 07:42:11;;;;;;;6.45;3.85;;;;;;;13.75;85.90;99471.22;4990741;28;20559;-74
2021/12/30 07:44:37;;;;;;;2.47;1.30;;;;;;;13.75;85.59;99476.53;4990226;28;20041;-74
2021/12/30 07:47:03;;;;;;;1.48;1.08;;;;;;;13.73;85.95;99467.84;4989384;28;20046;-75
2021/12/30 07:49:28;;;;;;;1.20;1.10;;;;;;;13.73;85.74;99486.38;4989877;28;20037;-75
2021/12/30 07:51:54;;;;;;;1.85;1.45;;;;;;;13.74;85.78;99481.00;4989720;28;20089;-76
2021/12/30 07:54:19;;;;;;;3.30;2.03;;;;;;;13.75;85.89;99487.13;4971693;28;20037;-76
2021/12/30 07:56:45;;;;;;;1.85;1.30;;;;;;;13.73;86.22;99495.19;4973078;28;20041;-76
2021/12/30 07:59:10;;;;;;;2.65;1.38;;;;;;;13.71;86.12;99497.09;4990336;28;20034;-77
2021/12/30 08:01:36;;;;;;;1.60;1.20;;;;;;;13.70;85.70;99505.13;4989693;28;20046;-76
2021/12/30 08:04:01;;;;;;;1.45;1.20;;;;;;;13.71;86.20;99504.22;4989114;28;20040;-75
2021/12/30 08:06:28;;;;;;;1.38;1.20;;;;;;;13.74;85.91;99502.19;4988574;28;20035;-76
2021/12/30 08:08:54;;;;;;;1.58;1.40;;;;;;;13.74;85.69;99504.00;4989013;28;20038;-75
2021/12/30 08:11:19;;;;;;;1.20;1.10;;;;;;;13.76;84.91;99515.34;4989017;28;20054;-77
2021/12/30 08:13:45;;;;;;;2.33;1.25;;;;;;;13.81;85.10;99507.06;4971965;28;20039;-77
2021/12/30 08:16:12;;;;;;;1.20;1.10;;;;;;;13.84;84.89;99514.81;4971665;28;20030;-76
2021/12/30 08:18:37;;;;;;;1.95;0.95;;;;;;;13.85;84.79;99513.84;4971577;28;20030;-76
2021/12/30 08:21:02;;;;;;;1.15;1.05;;;;;;;13.87;84.65;99526.06;4989138;28;20042;-75
2021/12/30 08:23:28;;;;;;;1.42;1.20;;;;;;;13.88;84.25;99538.38;4955548;28;20458;-75
2021/12/30 08:25:53;;;;;;;2.60;1.20;;;;;;;13.89;84.32;99536.56;4988208;28;20042;-76
2021/12/30 08:28:19;;;;;;;1.17;1.08;;;;;;;13.89;84.56;99534.75;4971526;28;20133;-76
2021/12/30 08:30:44;;;;;;;1.20;1.10;;;;;;;13.90;84.17;99544.38;4989618;28;20121;-75
2021/12/30 08:33:10;;;;;;;4.82;1.40;;;;;;;13.92;84.30;99547.78;4991497;28;20538;-75
2021/12/30 08:35:36;;;;;;;1.63;1.13;;;;;;;13.94;84.61;99547.69;4988913;28;20070;-75
2021/12/30 08:38:01;;;;;;;1.23;1.05;;;;;;;13.92;84.78;99547.78;4973663;28;20065;-75
2021/12/30 08:40:27;;;;;;;3.20;1.10;;;;;;;13.94;84.91;99559.16;4989200;28;20062;-75
2021/12/30 08:42:52;;;;;;;2.13;1.27;;;;;;;13.95;84.73;99558.22;4989957;28;20050;-75
2021/12/30 08:45:18;;;;;;;6.63;1.48;;;;;;;13.96;85.46;99565.19;4971166;28;20150;-74
2021/12/30 08:47:45;;;;;;;1.45;1.23;;;;;;;13.92;85.96;99576.94;4989023;28;20038;-76
2021/12/30 08:50:13;;;;;;;3.75;1.20;;;;;;;13.90;86.40;99568.25;4989897;28;20042;-76
2021/12/30 08:52:41;;;;;;;2.60;1.38;;;;;;;13.84;87.47;99567.81;4993045;28;20057;-77
2021/12/30 08:55:07;;;;;;;1.80;1.10;;;;;;;13.78;88.10;99571.69;4991983;28;20092;-76
2021/12/30 08:57:36;;;;;;;1.10;1.00;;;;;;;13.75;88.44;99559.50;4992565;28;20089;-76
2021/12/30 09:00:05;;;;;;;2.35;1.13;;;;;;;13.74;88.28;99567.56;4992428;28;20049;-76
2021/12/30 09:02:30;;;;;;;1.50;1.20;;;;;;;13.74;88.56;99572.88;4992198;28;20038;-76
2021/12/30 09:04:56;;;;;;;1.40;1.27;;;;;;;13.75;88.77;99575.41;4992119;28;20092;-76
2021/12/30 09:07:21;;;;;;;1.20;1.10;;;;;;;13.78;88.81;99571.69;4992390;28;20049;-77
2021/12/30 09:09:47;;;;;;;2.17;1.10;;;;;;;13.81;88.15;99568.00;4992609;28;20030;-75
2021/12/30 09:12:12;;;;;;;1.45;1.05;;;;;;;13.82;87.84;99573.22;4975811;28;20121;-77
2021/12/30 09:14:38;;;;;;;1.52;1.30;;;;;;;13.83;87.76;99572.28;4992252;28;20045;-74
2021/12/30 09:17:05;;;;;;;2.55;1.10;;;;;;;13.84;88.13;99571.31;4991778;28;20047;-74
2021/12/30 09:19:31;;;;;;;1.92;1.45;;;;;;;13.83;88.13;99577.56;4992603;28;20069;-76
2021/12/30 09:21:56;;;;;;;1.58;1.30;;;;;;;13.83;88.39;99574.06;4992668;28;20581;-76
2021/12/30 09:24:22;;;;;;;2.13;1.52;;;;;;;13.79;88.27;99578.72;4992446;28;20031;-76
2021/12/30 09:26:48;;;;;;;1.92;1.35;;;;;;;13.79;87.90;99577.88;4991762;28;20084;-77
2021/12/30 09:29:13;;;;;;;1.35;1.10;;;;;;;13.79;88.09;99576.06;4992360;28;20062;-75
2021/12/30 09:31:48;;;;;;;1.50;1.30;;;;;;;13.80;88.17;99576.91;4992129;28;20377;-76
2021/12/30 09:34:15;;;;;;;1.55;1.40;;;;;;;13.80;88.60;99569.81;4992661;28;20038;-75
2021/12/30 09:36:40;;;;;;;4.90;3.05;;;;;;;13.77;88.77;99591.22;4992110;28;20034;-76
2021/12/30 09:39:10;;;;;;;1.20;1.10;;;;;;;13.74;88.96;99584.31;4992542;28;20398;-76
2021/12/30 09:41:37;;;;;;;1.70;1.20;;;;;;;13.75;89.30;99593.94;4992357;28;20521;-76
2021/12/30 09:44:04;;;;;;;2.67;1.48;;;;;;;13.76;89.15;99592.19;4993521;28;20054;-75
2021/12/30 09:46:30;;;;;;;2.45;1.63;;;;;;;13.75;88.99;99599.25;4991591;28;20057;-75
2021/12/30 09:48:55;;;;;;;1.60;1.30;;;;;;;13.74;88.69;99602.88;4992514;28;20494;-76
2021/12/30 09:51:21;;;;;;;3.10;1.48;;;;;;;13.73;88.85;99593.22;4992569;28;20042;-76
2021/12/30 09:53:52;;;;;;;1.35;1.20;;;;;;;13.75;88.67;99604.53;4993435;28;20031;-74
2021/12/30 09:56:19;;;;;;;2.15;1.55;;;;;;;13.74;88.46;99608.16;4991435;28;20034;-74
2021/12/30 09:58:45;;;;;;;2.47;1.50;;;;;;;13.80;87.59;99616.66;4992314;28;20121;-74
2021/12/30 10:01:10;;;;;;;1.75;1.25;;;;;;;13.86;86.60;99613.63;4992878;28;20174;-75
2021/12/30 10:03:35;;;;;;;2.50;2.03;;;;;;;13.92;86.18;99613.19;4992029;28;20054;-75
2021/12/30 10:06:09;;;;;;;2.45;1.42;;;;;;;13.98;85.76;99625.19;4973593;28;20042;-75
2021/12/30 10:08:40;;;;;;;3.47;2.03;;;;;;;14.00;85.97;99623.28;4991660;28;20034;-75
2021/12/30 10:11:12;;;;;;;8.32;3.35;;;;;;;14.01;85.30;99630.31;4991971;28;20037;-75
2021/12/30 10:13:41;;;;;;;2.72;1.73;;;;;;;14.01;85.00;99625.00;4992146;28;20038;-75
2021/12/30 10:16:12;;;;;;;4.85;2.30;;;;;;;14.05;84.72;99622.03;4991134;28;20038;-76
2021/12/30 10:18:53;;;;;;;4.30;2.60;;;;;;;14.12;84.19;99622.47;4991129;28;20109;-75
2021/12/30 10:21:35;;;;;;;3.80;2.10;;;;;;;14.16;83.50;99621.34;4990974;28;20117;-76
2021/12/30 10:24:04;;;;;;;3.88;2.17;;;;;;;14.17;82.65;99623.03;4991511;28;20038;-77
2021/12/30 10:26:30;;;;;;;4.18;2.10;;;;;;;14.20;82.66;99617.53;4990645;28;20428;-75
2021/12/30 10:28:58;;;;;;;5.72;2.58;;;;;;;14.24;82.43;99615.53;4991885;28;20034;-75
2021/12/30 10:31:27;;;;;;;5.40;2.35;;;;;;;14.25;82.49;99617.19;5002336;28;20034;-73
2021/12/30 10:34:06;;;;;;;3.35;2.17;;;;;;;14.27;81.99;99621.44;5000129;28;20030;-74
2021/12/30 10:36:34;;;;;;;6.05;2.28;;;;;;;14.28;81.94;99620.50;4991106;28;20045;-78
2021/12/30 10:39:17;;;;;;;3.25;2.40;;;;;;;14.32;82.04;99622.03;4990769;28;20046;-76
2021/12/30 10:41:43;;;;;;;3.17;2.03;;;;;;;14.36;81.91;99625.31;4990786;28;20038;-74
2021/12/30 10:44:09;;;;;;;7.53;3.50;;;;;;;14.37;81.66;99624.34;4989859;28;20030;-74
2021/12/30 10:46:34;;;;;;;4.28;2.75;;;;;;;14.38;81.72;99621.59;4989160;28;20172;-76
2021/12/30 10:49:18;;;;;;;5.18;2.22;;;;;;;14.38;81.84;99620.75;4990707;28;20054;-74
2021/12/30 10:51:49;;;;;;;4.65;2.40;;;;;;;14.37;81.95;99627.88;4991081;28;20176;-75
2021/12/30 10:54:17;;;;;;;5.28;3.20;;;;;;;14.34;82.59;99633.34;4991587;28;20034;-74
2021/12/30 10:56:59;;;;;;;3.22;2.15;;;;;;;14.26;83.03;99622.41;4995479;28;20042;-74
2021/12/30 10:59:31;;;;;;;5.00;2.53;;;;;;;14.24;83.09;99626.97;5003896;28;20042;-74
2021/12/30 11:01:57;;;;;;;6.15;2.22;;;;;;;14.20;83.15;99638.75;4996460;28;20514;-75
2021/12/30 11:04:34;;;;;;;3.47;2.10;;;;;;;14.19;83.32;99629.06;4989990;28;20038;-75
2021/12/30 11:07:00;;;;;;;3.40;2.13;;;;;;;14.15;83.53;99639.06;4991215;28;20038;-75
2021/12/30 11:09:25;;;;;;;3.63;2.13;;;;;;;14.12;83.29;99628.63;4987354;28;20474;-75
2021/12/30 11:11:54;;;;;;;5.57;2.63;;;;;;;14.07;83.59;99640.50;4989783;28;20431;-75
2021/12/30 11:14:29;;;;;;;3.65;2.10;;;;;;;14.07;83.86;99640.50;4989526;28;20038;-76
2021/12/30 11:17:04;;;;;;;3.45;2.33;;;;;;;14.13;83.61;99624.19;4990079;28;20027;-76
2021/12/30 11:19:31;;;;;;;6.10;2.90;;;;;;;14.18;82.33;99624.75;4990483;28;20494;-77
2021/12/30 11:21:59;;;;;;;10.63;2.83;;;;;;;14.23;81.61;99630.59;4990228;28;20034;-76
2021/12/30 11:24:26;;;;;;;4.05;2.17;;;;;;;14.28;81.35;99628.47;4989443;28;20034;-74
2021/12/30 11:26:53;;;;;;;3.08;1.90;;;;;;;14.39;81.20;99635.69;4989402;28;20450;-75
2021/12/30 11:29:20;;;;;;;3.28;1.80;;;;;;;14.43;80.80;99629.25;4990107;28;20474;-74
2021/12/30 11:31:45;;;;;;;3.05;1.90;;;;;;;14.44;80.34;99630.94;4989759;28;20510;-76